Time;durP1;ratioP1;P1;durP2;ratioP2;P2;SDS_P1;SDS_P2;PMS_P1;PMS_P2;Temp;Humidity;BMP_temperature;BMP_pressure;BME280_temperature;BME280_humidity;BME280_pressure;Samples;Min_cycle;Max_cycle;Signal;HPM_P1;HPM_P2
2022/04/30 00:01:19;;;;;;;10.30;9.50;;;13.50;99.90;;;;;;4971461;28;20443;-67
2022/04/30 00:03:45;;;;;;;11.37;10.17;;;13.50;99.90;;;;;;4971482;28;20204;-67
2022/04/30 00:06:11;;;;;;;10.93;10.13;;;13.50;99.90;;;;;;4970140;28;20538;-67
2022/04/30 00:08:36;;;;;;;10.60;9.83;;;13.50;99.90;;;;;;4971931;28;20872;-67
2022/04/30 00:11:03;;;;;;;11.57;10.57;;;13.40;99.90;;;;;;4969991;28;20180;-67
2022/04/30 00:13:30;;;;;;;10.77;9.83;;;13.40;99.90;;;;;;4970838;28;20263;-67
2022/04/30 00:15:56;;;;;;;11.83;10.87;;;13.40;99.90;;;;;;4970969;28;20446;-67
2022/04/30 00:18:21;;;;;;;11.07;10.23;;;13.40;99.90;;;;;;4969803;28;20455;-67
2022/04/30 00:20:47;;;;;;;12.30;11.10;;;13.40;99.90;;;;;;4967925;28;20223;-67
2022/04/30 00:23:20;;;;;;;12.73;11.73;;;13.40;99.90;;;;;;4968356;28;20196;-67
2022/04/30 00:25:49;;;;;;;13.03;11.90;;;13.40;99.90;;;;;;4970491;28;20643;-67
2022/04/30 00:28:17;;;;;;;12.20;11.10;;;13.40;99.90;;;;;;4969732;28;20873;-67
2022/04/30 00:30:44;;;;;;;13.13;11.07;;;13.40;99.90;;;;;;4970162;28;20946;-67
2022/04/30 00:33:10;;;;;;;10.60;9.60;;;13.20;99.90;;;;;;4971219;28;20439;-67
2022/04/30 00:35:39;;;;;;;11.30;10.40;;;13.00;99.90;;;;;;4970275;28;20510;-67
2022/04/30 00:38:05;;;;;;;13.53;11.00;;;12.90;99.90;;;;;;4969627;28;20200;-67
2022/04/30 00:40:31;;;;;;;12.40;11.50;;;12.80;99.90;;;;;;4973318;28;20439;-67
2022/04/30 00:42:56;;;;;;;12.60;11.50;;;12.80;99.90;;;;;;4970925;28;20467;-67
2022/04/30 00:45:22;;;;;;;12.73;11.60;;;12.80;99.90;;;;;;4971620;28;20186;-67
2022/04/30 00:47:48;;;;;;;12.70;11.70;;;12.70;99.90;;;;;;4968882;28;20243;-67
2022/04/30 00:50:16;;;;;;;12.73;11.67;;;12.70;99.90;;;;;;4969735;28;20576;-67
2022/04/30 00:52:43;;;;;;;11.90;10.90;;;12.80;99.90;;;;;;4972329;28;20267;-67
2022/04/30 00:55:11;;;;;;;12.60;11.50;;;12.80;99.90;;;;;;4969878;28;20478;-68
2022/04/30 00:57:41;;;;;;;12.00;10.90;;;12.90;99.90;;;;;;4970059;28;20462;-68
2022/04/30 01:00:07;;;;;;;12.60;11.53;;;12.90;99.90;;;;;;4970544;28;20478;-67
2022/04/30 01:02:33;;;;;;;13.37;12.13;;;12.90;99.90;;;;;;4970758;28;20925;-67
2022/04/30 01:05:00;;;;;;;12.40;11.20;;;12.80;99.90;;;;;;4969925;28;20519;-67
2022/04/30 01:07:27;;;;;;;13.00;12.00;;;12.80;99.90;;;;;;4971684;28;20206;-67
2022/04/30 01:09:54;;;;;;;12.03;11.03;;;12.70;99.90;;;;;;4971001;28;20912;-67
2022/04/30 01:12:20;;;;;;;11.83;10.77;;;12.60;99.90;;;;;;4969722;28;21000;-67
2022/04/30 01:14:47;;;;;;;13.10;12.00;;;12.60;99.90;;;;;;4970062;28;20439;-67
2022/04/30 01:17:12;;;;;;;13.67;12.57;;;12.60;99.90;;;;;;4972631;28;20506;-67
2022/04/30 01:19:41;;;;;;;14.70;13.03;;;12.60;99.90;;;;;;4974146;28;20887;-67
2022/04/30 01:22:14;;;;;;;14.63;13.23;;;12.50;99.90;;;;;;4972787;28;20238;-68
2022/04/30 01:24:40;;;;;;;13.27;11.97;;;12.50;99.90;;;;;;4974027;28;20853;-67
2022/04/30 01:27:07;;;;;;;14.63;13.40;;;12.40;99.90;;;;;;4974381;28;20537;-67
2022/04/30 01:29:33;;;;;;;15.90;14.47;;;12.40;99.90;;;;;;4972780;28;20501;-67
2022/04/30 01:37:35;;;;;;;17.57;15.47;;;12.30;99.90;;;;;;4974116;28;20513;-67
2022/04/30 01:40:09;;;;;;;20.97;17.93;;;12.30;99.90;;;;;;4973364;28;20447;-67
2022/04/30 01:42:40;;;;;;;19.87;17.87;;;12.30;99.90;;;;;;4973944;28;21279;-67
2022/04/30 01:45:07;;;;;;;21.20;18.87;;;12.20;99.90;;;;;;4974206;28;20435;-67
2022/04/30 01:47:36;;;;;;;23.30;19.00;;;12.30;99.90;;;;;;4974110;28;20462;-67
2022/04/30 01:50:03;;;;;;;25.70;20.93;;;12.30;99.90;;;;;;4973064;28;21000;-67
2022/04/30 01:52:29;;;;;;;24.00;20.30;;;12.30;99.90;;;;;;4973295;28;20476;-68
2022/04/30 01:54:56;;;;;;;27.17;18.23;;;12.30;99.90;;;;;;4973166;28;20962;-68
2022/04/30 01:57:26;;;;;;;28.67;21.30;;;12.20;99.90;;;;;;4973666;28;20521;-67
2022/04/30 01:59:56;;;;;;;27.87;21.90;;;12.20;99.90;;;;;;4973475;28;20444;-67
2022/04/30 02:02:24;;;;;;;30.67;22.60;;;12.20;99.90;;;;;;4970260;28;20460;-67
2022/04/30 02:04:55;;;;;;;25.37;20.87;;;12.10;99.90;;;;;;4956050;28;20443;-67
2022/04/30 02:07:23;;;;;;;23.63;19.90;;;12.20;99.90;;;;;;4973534;28;20517;-68
2022/04/30 02:09:53;;;;;;;24.23;21.50;;;12.20;99.90;;;;;;4973255;28;20435;-67
2022/04/30 02:12:19;;;;;;;26.20;19.27;;;12.20;99.90;;;;;;4973231;28;20440;-67
2022/04/30 02:14:52;;;;;;;22.90;20.20;;;12.20;99.90;;;;;;4974182;28;20574;-67
2022/04/30 02:17:23;;;;;;;21.90;19.53;;;12.10;99.90;;;;;;4971771;28;20661;-67
2022/04/30 02:22:38;;;;;;;24.33;19.20;;;12.10;99.90;;;;;;4971448;28;20513;-67
2022/04/30 02:25:08;;;;;;;26.80;20.93;;;12.10;99.90;;;;;;4974478;28;20432;-67
2022/04/30 02:27:35;;;;;;;21.40;19.20;;;12.10;99.90;;;;;;4973378;28;20467;-68
2022/04/30 02:30:04;;;;;;;22.73;19.50;;;12.10;99.90;;;;;;4973687;28;20440;-68
2022/04/30 02:32:42;;;;;;;22.57;19.93;;;12.10;99.90;;;;;;4973552;28;20518;-68
2022/04/30 02:35:08;;;;;;;25.20;19.07;;;12.00;99.90;;;;;;4967437;28;20497;-67
2022/04/30 02:37:35;;;;;;;22.37;19.57;;;12.00;99.90;;;;;;4974019;28;20557;-68
2022/04/30 02:40:01;;;;;;;20.67;18.50;;;12.00;99.90;;;;;;4971667;28;20490;-67
2022/04/30 02:42:27;;;;;;;25.07;20.10;;;11.90;99.90;;;;;;4973873;28;20471;-68
2022/04/30 02:44:53;;;;;;;24.80;19.80;;;11.80;99.90;;;;;;4972166;28;20444;-67
2022/04/30 02:47:19;;;;;;;20.87;18.77;;;11.80;99.90;;;;;;4972814;28;20470;-67
2022/04/30 02:49:44;;;;;;;24.00;19.30;;;11.80;99.90;;;;;;4970795;28;20183;-67
2022/04/30 02:52:10;;;;;;;23.83;19.30;;;11.80;99.90;;;;;;4973772;28;20270;-67
2022/04/30 02:54:35;;;;;;;20.70;18.60;;;11.80;99.90;;;;;;4971969;28;20180;-67
2022/04/30 02:57:01;;;;;;;23.50;19.17;;;11.70;99.90;;;;;;4974529;28;20196;-67
2022/04/30 03:02:11;;;;;;;20.17;18.07;;;11.70;99.90;;;;;;4970353;28;20207;-67
2022/04/30 03:04:36;;;;;;;21.70;18.27;;;11.70;99.90;;;;;;4973652;28;20432;-67
2022/04/30 03:07:03;;;;;;;19.53;17.50;;;11.80;99.90;;;;;;4971356;28;20211;-67
2022/04/30 03:09:29;;;;;;;26.10;18.43;;;11.80;99.90;;;;;;4971979;28;20257;-68
2022/04/30 03:11:55;;;;;;;22.83;19.37;;;11.70;99.90;;;;;;4968624;28;20444;-68
2022/04/30 03:14:20;;;;;;;21.97;19.57;;;11.70;99.90;;;;;;4973368;28;21004;-67
2022/04/30 03:22:14;;;;;;;23.33;20.63;;;11.60;99.90;;;;;;4973310;28;20466;-68
2022/04/30 03:24:39;;;;;;;25.67;21.00;;;11.50;99.90;;;;;;4971874;28;20440;-67
2022/04/30 03:27:06;;;;;;;24.77;20.93;;;11.60;99.90;;;;;;4973466;28;20251;-67
2022/04/30 03:29:32;;;;;;;25.50;20.93;;;11.70;99.90;;;;;;4970160;28;20184;-67
2022/04/30 03:31:58;;;;;;;25.57;21.03;;;11.80;99.90;;;;;;4972935;28;20439;-67
2022/04/30 03:34:23;;;;;;;25.20;19.67;;;11.80;99.90;;;;;;4972445;28;20440;-67
2022/04/30 03:36:49;;;;;;;25.50;22.83;;;11.80;99.90;;;;;;4972715;28;20456;-68
2022/04/30 03:39:15;;;;;;;24.80;21.07;;;11.70;99.90;;;;;;4970757;28;20193;-68
2022/04/30 03:41:40;;;;;;;26.80;20.37;;;11.70;99.90;;;;;;4971091;28;20180;-67
2022/04/30 03:44:07;;;;;;;23.77;20.87;;;11.70;99.90;;;;;;4972619;28;20200;-67
2022/04/30 03:46:33;;;;;;;34.50;25.03;;;11.60;99.90;;;;;;4972630;28;20192;-67
2022/04/30 03:49:00;;;;;;;26.03;21.23;;;11.70;99.90;;;;;;4970339;28;20940;-67
2022/04/30 03:51:25;;;;;;;25.40;22.50;;;11.70;99.90;;;;;;4968944;28;20431;-67
2022/04/30 03:53:53;;;;;;;30.57;25.13;;;11.60;99.90;;;;;;4970750;28;20436;-67
2022/04/30 03:56:19;;;;;;;27.00;23.37;;;11.60;99.90;;;;;;4972443;28;20244;-67
2022/04/30 03:58:47;;;;;;;36.50;25.80;;;11.60;99.90;;;;;;4970601;28;20447;-68
2022/04/30 04:01:13;;;;;;;30.43;24.40;;;11.60;99.90;;;;;;4969881;28;20443;-67
2022/04/30 04:03:39;;;;;;;33.20;26.47;;;11.50;99.90;;;;;;4954464;28;20463;-67
2022/04/30 04:06:05;;;;;;;29.10;24.90;;;11.50;99.90;;;;;;4970541;28;21040;-67
2022/04/30 04:08:31;;;;;;;37.30;27.47;;;11.50;99.90;;;;;;4972015;28;20455;-67
2022/04/30 04:10:57;;;;;;;34.37;26.53;;;11.40;99.90;;;;;;4970432;28;20920;-68
2022/04/30 04:18:55;;;;;;;37.33;26.40;;;11.50;99.90;;;;;;4971342;28;20442;-67
2022/04/30 04:21:21;;;;;;;31.30;26.97;;;11.50;99.90;;;;;;4971623;28;20439;-67
2022/04/30 04:26:31;;;;;;;33.20;29.57;;;11.50;99.90;;;;;;4972245;28;20533;-67
2022/04/30 04:28:56;;;;;;;37.50;30.17;;;11.40;99.90;;;;;;4969221;28;20937;-68
2022/04/30 04:31:25;;;;;;;37.30;29.47;;;11.30;99.90;;;;;;4968341;28;20191;-68
2022/04/30 04:33:51;;;;;;;35.67;25.40;;;11.30;99.90;;;;;;4971326;28;20180;-68
2022/04/30 04:36:17;;;;;;;33.33;28.47;;;11.30;99.90;;;;;;4971474;28;20450;-68
2022/04/30 04:38:43;;;;;;;28.80;25.60;;;11.40;99.90;;;;;;4954468;28;20431;-67
2022/04/30 04:41:08;;;;;;;39.87;28.10;;;11.40;99.90;;;;;;4970272;28;20952;-68
2022/04/30 04:43:34;;;;;;;32.23;27.93;;;11.30;99.90;;;;;;4970429;28;20478;-68
2022/04/30 04:46:02;;;;;;;39.10;28.63;;;11.30;99.90;;;;;;4971331;28;20207;-67
2022/04/30 04:48:28;;;;;;;35.20;28.20;;;11.40;99.90;;;;;;4970585;28;20199;-68
2022/04/30 04:50:54;;;;;;;35.83;28.90;;;11.30;99.90;;;;;;4972196;28;20586;-67
2022/04/30 04:53:20;;;;;;;40.30;29.03;;;11.30;99.90;;;;;;4974455;28;20514;-67
2022/04/30 04:55:45;;;;;;;38.53;28.20;;;11.30;99.90;;;;;;4975360;28;20573;-67
2022/04/30 04:58:11;;;;;;;34.87;29.60;;;11.20;99.90;;;;;;4972385;28;20712;-67
2022/04/30 05:00:36;;;;;;;34.20;28.83;;;11.10;99.90;;;;;;4974160;28;20184;-68
2022/04/30 05:03:02;;;;;;;32.53;28.40;;;11.00;99.90;;;;;;4975574;28;20208;-67
2022/04/30 05:05:27;;;;;;;37.40;29.50;;;11.00;99.90;;;;;;4974978;28;20238;-67
2022/04/30 05:07:53;;;;;;;34.57;26.87;;;11.00;99.90;;;;;;4974225;28;20367;-67
2022/04/30 05:10:18;;;;;;;39.23;28.97;;;11.00;99.90;;;;;;4975213;28;20669;-67
2022/04/30 05:12:46;;;;;;;42.33;30.07;;;11.00;99.90;;;;;;4975207;28;20184;-67
2022/04/30 05:15:12;;;;;;;40.40;31.10;;;11.00;99.90;;;;;;4974562;28;20172;-67
2022/04/30 05:17:37;;;;;;;39.40;34.33;;;10.90;99.90;;;;;;4975405;28;20467;-67
2022/04/30 05:20:05;;;;;;;38.53;31.50;;;11.00;99.90;;;;;;4974636;28;21030;-67
2022/04/30 05:22:31;;;;;;;34.30;29.03;;;11.00;99.90;;;;;;4974368;28;20674;-67
2022/04/30 05:24:56;;;;;;;36.93;31.57;;;11.00;99.90;;;;;;4974869;28;20526;-68
2022/04/30 05:27:22;;;;;;;33.63;29.60;;;11.00;99.90;;;;;;4974519;28;20218;-67
2022/04/30 05:29:47;;;;;;;34.13;30.23;;;11.10;99.90;;;;;;4973766;28;20226;-67
2022/04/30 05:32:13;;;;;;;42.80;28.97;;;11.10;99.90;;;;;;4973403;28;20195;-67
2022/04/30 05:34:39;;;;;;;37.73;29.63;;;11.20;99.90;;;;;;4973992;28;20185;-66
2022/04/30 05:37:05;;;;;;;40.27;34.60;;;11.20;99.90;;;;;;4973881;28;20199;-66
2022/04/30 05:39:30;;;;;;;37.33;30.43;;;11.20;99.90;;;;;;4977199;28;20438;-66
2022/04/30 05:41:56;;;;;;;34.57;28.80;;;11.40;99.90;;;;;;4973822;28;20271;-65
2022/04/30 05:44:22;;;;;;;34.13;30.43;;;11.40;99.90;;;;;;4974760;28;20219;-67
2022/04/30 05:46:48;;;;;;;39.13;31.07;;;11.50;99.90;;;;;;4974367;28;20200;-67
2022/04/30 05:49:13;;;;;;;39.30;32.00;;;11.50;99.90;;;;;;4973434;28;20937;-67
2022/04/30 05:51:39;;;;;;;33.90;30.20;;;11.60;99.90;;;;;;4973882;28;20626;-67
2022/04/30 05:54:05;;;;;;;33.10;29.30;;;11.60;99.90;;;;;;4972930;28;20264;-68
2022/04/30 05:56:31;;;;;;;36.13;30.00;;;11.70;99.90;;;;;;4974637;28;20463;-67
2022/04/30 05:58:56;;;;;;;33.20;27.70;;;11.70;99.90;;;;;;4974033;28;20235;-68
2022/04/30 06:01:22;;;;;;;32.53;28.53;;;11.70;99.90;;;;;;4973605;28;20190;-67
2022/04/30 06:03:47;;;;;;;33.10;28.80;;;11.80;99.90;;;;;;4972594;28;20298;-67
2022/04/30 06:06:13;;;;;;;38.60;32.33;;;11.80;99.90;;;;;;4973309;28;20172;-68
2022/04/30 06:08:38;;;;;;;31.53;26.73;;;11.80;99.90;;;;;;4974290;28;20231;-67
2022/04/30 06:11:04;;;;;;;31.80;28.57;;;11.80;99.90;;;;;;4973716;28;20180;-67
2022/04/30 06:13:29;;;;;;;34.70;29.90;;;11.80;99.90;;;;;;4973495;28;20195;-68
2022/04/30 06:15:55;;;;;;;36.87;28.93;;;11.80;99.90;;;;;;4974152;28;20184;-68
2022/04/30 06:18:20;;;;;;;33.43;28.83;;;11.90;99.90;;;;;;4972563;28;20235;-68
2022/04/30 06:20:46;;;;;;;32.57;27.70;;;12.00;99.90;;;;;;4973713;28;20176;-68
2022/04/30 06:23:18;;;;;;;36.13;27.53;;;12.00;99.90;;;;;;4973999;28;20250;-68
2022/04/30 06:25:45;;;;;;;31.20;27.07;;;12.00;99.90;;;;;;4970364;28;20544;-69
2022/04/30 06:28:12;;;;;;;34.73;28.70;;;12.00;99.90;;;;;;4971825;28;20471;-67
2022/04/30 06:30:38;;;;;;;33.30;27.23;;;12.10;99.90;;;;;;4973898;28;20440;-68
2022/04/30 06:33:04;;;;;;;31.13;27.63;;;12.10;99.90;;;;;;4973340;28;20961;-68
2022/04/30 06:35:29;;;;;;;35.10;29.13;;;12.30;99.90;;;;;;4974585;28;20518;-67
2022/04/30 06:37:55;;;;;;;30.77;27.47;;;12.40;99.90;;;;;;4973714;28;20216;-67
2022/04/30 06:40:20;;;;;;;30.10;27.00;;;12.50;99.90;;;;;;4973693;28;20712;-67
2022/04/30 06:42:46;;;;;;;30.80;26.67;;;12.60;99.90;;;;;;4974107;28;20207;-67
2022/04/30 06:45:12;;;;;;;27.83;25.07;;;12.70;99.90;;;;;;4973415;28;20188;-67
2022/04/30 06:47:39;;;;;;;30.93;27.60;;;12.80;99.90;;;;;;4973185;28;20204;-68
2022/04/30 06:50:05;;;;;;;29.03;25.80;;;12.90;99.90;;;;;;4972563;28;20445;-67
2022/04/30 06:52:31;;;;;;;25.40;22.83;;;13.10;99.90;;;;;;4974034;28;20435;-67
2022/04/30 06:57:45;;;;;;;26.83;23.80;;;13.20;99.90;;;;;;4973056;28;20212;-67
2022/04/30 07:03:03;;;;;;;28.57;24.30;;;13.30;99.90;;;;;;4953394;28;20555;-67
2022/04/30 07:05:28;;;;;;;25.50;22.80;;;13.40;99.90;;;;;;4973415;28;20444;-67
2022/04/30 07:07:54;;;;;;;27.23;24.40;;;13.50;99.90;;;;;;4968287;28;20470;-67
2022/04/30 07:10:20;;;;;;;29.70;25.00;;;13.60;99.90;;;;;;4972196;28;20629;-68
2022/04/30 07:12:45;;;;;;;28.33;22.90;;;13.60;99.90;;;;;;4972491;28;20180;-67
2022/04/30 07:15:11;;;;;;;26.87;22.57;;;13.60;99.90;;;;;;4970607;28;20235;-67
2022/04/30 07:17:38;;;;;;;26.40;23.70;;;13.50;99.90;;;;;;4972015;28;20201;-67
2022/04/30 07:20:05;;;;;;;28.70;25.50;;;13.50;99.90;;;;;;4971898;28;20440;-68
2022/04/30 07:22:31;;;;;;;26.93;24.30;;;13.20;99.90;;;;;;4973103;28;20469;-68
2022/04/30 07:24:57;;;;;;;28.93;24.97;;;12.80;99.90;;;;;;4972237;28;20444;-68
2022/04/30 07:27:22;;;;;;;29.03;25.43;;;12.70;99.90;;;;;;4972050;28;20212;-68
2022/04/30 07:29:48;;;;;;;31.53;26.00;;;12.70;99.90;;;;;;4966160;28;20502;-68
2022/04/30 07:32:14;;;;;;;29.77;25.27;;;12.70;99.90;;;;;;4972229;28;20188;-67
2022/04/30 07:34:40;;;;;;;25.60;23.03;;;12.80;99.90;;;;;;4973134;28;20446;-68
2022/04/30 07:37:10;;;;;;;26.93;24.17;;;12.80;99.90;;;;;;4973299;28;20207;-68
2022/04/30 07:39:37;;;;;;;28.50;24.30;;;12.80;99.90;;;;;;4970117;28;20447;-68
2022/04/30 07:42:03;;;;;;;25.70;22.90;;;12.80;99.90;;;;;;4965975;28;20503;-68
2022/04/30 07:44:30;;;;;;;27.73;22.97;;;12.90;99.90;;;;;;4972818;28;20482;-67
2022/04/30 07:46:56;;;;;;;26.00;23.30;;;13.00;99.90;;;;;;4972910;28;20972;-67
2022/04/30 07:49:21;;;;;;;28.73;22.50;;;13.20;99.90;;;;;;4970567;28;20485;-68
2022/04/30 07:51:55;;;;;;;30.97;22.90;;;13.40;99.90;;;;;;4972233;28;20440;-67
2022/04/30 07:54:21;;;;;;;23.87;21.30;;;13.50;99.90;;;;;;4972889;28;20642;-67
2022/04/30 07:56:50;;;;;;;25.87;23.20;;;13.40;99.90;;;;;;4972559;28;20834;-67
2022/04/30 07:59:16;;;;;;;24.77;22.30;;;13.30;99.90;;;;;;4970479;28;20462;-67
2022/04/30 08:01:41;;;;;;;24.47;21.97;;;13.30;99.90;;;;;;4972450;28;20435;-67
2022/04/30 08:04:07;;;;;;;24.90;22.30;;;13.20;99.90;;;;;;4971667;28;20219;-67
2022/04/30 08:06:32;;;;;;;25.40;20.90;;;12.90;99.90;;;;;;4971729;28;20203;-68
2022/04/30 08:08:58;;;;;;;24.07;21.67;;;12.80;99.90;;;;;;4970821;28;20576;-67
2022/04/30 08:11:24;;;;;;;23.50;21.10;;;12.60;99.90;;;;;;4970569;28;20178;-67
2022/04/30 08:13:50;;;;;;;20.10;18.23;;;12.70;99.90;;;;;;4970948;28;20192;-67
2022/04/30 08:16:15;;;;;;;21.00;19.00;;;12.70;99.90;;;;;;4971927;28;20439;-67
2022/04/30 08:18:41;;;;;;;20.57;18.50;;;12.60;99.90;;;;;;4970535;28;20207;-68
2022/04/30 08:21:07;;;;;;;22.07;20.00;;;12.30;99.90;;;;;;4971709;28;20207;-67
2022/04/30 08:23:34;;;;;;;21.40;19.20;;;12.30;99.90;;;;;;4971881;28;20572;-66
2022/04/30 08:26:00;;;;;;;20.60;18.47;;;12.10;99.90;;;;;;4971806;28;20836;-67
2022/04/30 08:28:26;;;;;;;21.33;19.27;;;12.00;99.90;;;;;;4971382;28;20491;-68
2022/04/30 08:30:51;;;;;;;19.23;17.20;;;12.00;99.90;;;;;;4971041;28;20903;-68
2022/04/30 08:33:17;;;;;;;21.50;19.53;;;11.90;99.90;;;;;;4971953;28;20184;-68
2022/04/30 08:35:42;;;;;;;21.00;19.10;;;11.70;99.90;;;;;;4971990;28;20184;-68
2022/04/30 08:38:09;;;;;;;23.00;19.03;;;11.70;99.90;;;;;;4971151;28;20670;-67
2022/04/30 08:40:35;;;;;;;22.00;19.57;;;11.70;99.90;;;;;;4970899;28;20272;-67
2022/04/30 08:43:09;;;;;;;18.90;17.10;;;11.70;99.90;;;;;;4966636;28;20479;-67
2022/04/30 08:45:37;;;;;;;25.47;21.33;;;11.70;99.90;;;;;;4970277;28;20964;-67
2022/04/30 08:48:06;;;;;;;24.00;21.67;;;11.60;99.90;;;;;;4970763;28;20461;-67
2022/04/30 08:50:32;;;;;;;22.20;19.90;;;11.60;99.90;;;;;;4968098;28;20439;-67
2022/04/30 08:52:58;;;;;;;22.80;20.30;;;11.60;99.90;;;;;;4969472;28;20445;-67
2022/04/30 08:55:23;;;;;;;21.50;19.23;;;11.50;99.90;;;;;;4972104;28;20545;-67
2022/04/30 08:57:49;;;;;;;22.07;19.50;;;11.40;99.90;;;;;;4970928;28;20207;-67
2022/04/30 09:00:15;;;;;;;19.57;17.57;;;11.50;99.90;;;;;;4970573;28;20267;-68
2022/04/30 09:02:54;;;;;;;20.50;18.50;;;11.50;99.90;;;;;;4968172;28;20211;-67
2022/04/30 09:05:21;;;;;;;22.73;20.50;;;11.60;99.90;;;;;;4949807;28;21047;-67
2022/04/30 09:07:58;;;;;;;20.17;18.20;;;11.60;99.90;;;;;;4970993;28;20462;-67
2022/04/30 09:10:27;;;;;;;19.87;17.87;;;11.60;99.90;;;;;;4971785;28;20786;-67
2022/04/30 09:12:53;;;;;;;20.77;18.67;;;11.80;99.90;;;;;;4970820;28;20451;-67
2022/04/30 09:15:19;;;;;;;18.63;16.83;;;11.90;99.90;;;;;;4970906;28;20522;-67
2022/04/30 09:17:57;;;;;;;21.10;19.10;;;12.00;99.90;;;;;;4971691;28;20208;-67
2022/04/30 09:20:23;;;;;;;19.03;17.20;;;12.10;99.90;;;;;;4971351;28;20191;-67
2022/04/30 09:22:48;;;;;;;18.40;16.70;;;12.20;99.90;;;;;;4971052;28;20467;-67
2022/04/30 09:25:17;;;;;;;18.60;16.90;;;12.30;99.90;;;;;;4971517;28;20177;-67
2022/04/30 09:27:51;;;;;;;17.27;15.60;;;12.40;99.90;;;;;;4970430;28;20291;-67
2022/04/30 09:30:24;;;;;;;16.83;15.33;;;12.60;99.90;;;;;;4971552;28;20439;-67
2022/04/30 09:33:04;;;;;;;15.10;13.80;;;12.70;99.90;;;;;;4970773;28;20526;-68
2022/04/30 09:38:36;;;;;;;14.60;13.10;;;12.90;99.90;;;;;;4972503;28;20549;-67
2022/04/30 09:41:06;;;;;;;15.77;14.40;;;12.90;99.90;;;;;;4967789;28;20439;-67
2022/04/30 09:43:34;;;;;;;14.67;13.30;;;13.10;99.90;;;;;;4975066;28;20470;-67
2022/04/30 09:46:00;;;;;;;15.63;14.33;;;13.30;99.90;;;;;;4971957;28;20523;-68
2022/04/30 09:53:58;;;;;;;13.23;12.03;;;14.10;99.90;;;;;;4974243;28;20526;-67
2022/04/30 09:56:35;;;;;;;11.87;10.97;;;14.60;99.90;;;;;;4975013;28;20891;-67
2022/04/30 09:59:06;;;;;;;11.73;10.57;;;15.10;99.90;;;;;;4966875;28;20446;-67
2022/04/30 10:01:34;;;;;;;13.20;12.00;;;15.40;99.90;;;;;;4974193;28;20509;-67
2022/04/30 10:04:05;;;;;;;13.83;12.43;;;15.40;99.90;;;;;;4974839;28;21044;-67
2022/04/30 10:06:31;;;;;;;10.83;10.10;;;15.80;99.90;;;;;;4974708;28;20547;-67
2022/04/30 10:08:57;;;;;;;13.63;12.47;;;15.60;99.90;;;;;;4974687;28;20515;-68
2022/04/30 10:11:29;;;;;;;11.60;10.70;;;16.00;99.90;;;;;;4974538;28;20446;-68
2022/04/30 10:14:02;;;;;;;11.40;10.40;;;16.10;99.90;;;;;;4974174;28;20513;-67
2022/04/30 10:16:28;;;;;;;12.17;11.17;;;15.70;99.90;;;;;;4974503;28;20431;-67
2022/04/30 10:19:10;;;;;;;14.57;13.30;;;16.00;99.90;;;;;;4974135;28;20444;-67
2022/04/30 10:21:37;;;;;;;14.80;13.60;;;15.90;99.90;;;;;;4972823;28;20439;-67
2022/04/30 10:24:04;;;;;;;12.73;11.73;;;16.00;99.90;;;;;;4973919;28;20463;-67
2022/04/30 10:26:29;;;;;;;10.93;10.07;;;15.90;99.90;;;;;;4974030;28;20526;-65
2022/04/30 10:29:14;;;;;;;11.10;10.20;;;16.20;99.90;;;;;;4972417;28;20456;-67
2022/04/30 10:31:44;;;;;;;10.90;10.00;;;16.70;99.90;;;;;;4971288;28;20180;-67
2022/04/30 10:34:10;;;;;;;10.00;9.10;;;17.40;99.90;;;;;;4974280;28;20435;-67
2022/04/30 10:36:38;;;;;;;9.60;8.80;;;18.30;99.90;;;;;;4972997;28;20447;-67
2022/04/30 10:39:09;;;;;;;8.37;7.77;;;18.90;99.90;;;;;;4971303;28;20451;-67
2022/04/30 10:41:45;;;;;;;7.20;6.70;;;19.80;99.90;;;;;;4979985;28;20443;-68
2022/04/30 10:44:12;;;;;;;8.13;7.43;;;19.70;99.90;;;;;;4956922;28;20490;-68
2022/04/30 10:46:44;;;;;;;8.20;7.60;;;19.50;99.90;;;;;;4973490;28;20506;-66
2022/04/30 10:49:10;;;;;;;7.23;6.70;;;19.40;99.90;;;;;;4973353;28;20472;-68
2022/04/30 10:51:41;;;;;;;7.00;6.50;;;19.30;99.90;;;;;;4973330;28;20499;-68
2022/04/30 10:54:12;;;;;;;6.83;6.20;;;18.90;99.90;;;;;;4973094;28;20192;-68
2022/04/30 10:56:39;;;;;;;6.93;6.43;;;18.10;99.90;;;;;;4956393;28;20463;-67
2022/04/30 10:59:05;;;;;;;6.10;5.60;;;17.50;99.90;;;;;;4973572;28;20444;-68
2022/04/30 11:01:31;;;;;;;6.70;6.20;;;17.70;99.90;;;;;;4972916;28;20530;-68
2022/04/30 11:03:56;;;;;;;6.73;6.23;;;18.00;99.90;;;;;;4972322;28;20550;-67
2022/04/30 11:06:24;;;;;;;5.73;5.27;;;18.80;99.90;;;;;;4973548;28;20188;-65
2022/04/30 11:09:19;;;;;;;5.27;4.97;;;20.10;99.90;;;;;;4969779;28;20685;-68
2022/04/30 11:11:47;;;;;;;5.57;5.17;;;21.80;99.90;;;;;;4958774;28;20427;-65
2022/04/30 11:14:13;;;;;;;4.10;3.80;;;22.70;99.90;;;;;;4969470;28;20807;-68
2022/04/30 11:16:49;;;;;;;4.53;4.27;;;23.00;98.70;;;;;;4973243;28;20832;-66
2022/04/30 11:19:20;;;;;;;5.10;4.70;;;23.60;95.20;;;;;;4963417;28;20453;-66
2022/04/30 11:21:53;;;;;;;5.77;5.30;;;22.60;97.30;;;;;;4979595;28;21034;-66
2022/04/30 11:24:26;;;;;;;5.50;5.10;;;21.30;99.70;;;;;;4973201;28;20505;-67
2022/04/30 11:26:58;;;;;;;5.37;5.07;;;20.00;99.90;;;;;;4971527;28;20995;-67
2022/04/30 11:29:25;;;;;;;5.50;5.10;;;18.70;99.90;;;;;;4971818;28;20435;-67
2022/04/30 11:31:52;;;;;;;8.30;7.70;;;18.00;99.90;;;;;;4973158;28;20497;-67
2022/04/30 11:34:18;;;;;;;6.57;6.07;;;17.50;99.90;;;;;;4973105;28;20442;-69
2022/04/30 11:36:46;;;;;;;7.40;6.90;;;17.00;99.90;;;;;;4973460;28;20678;-68
2022/04/30 11:39:12;;;;;;;7.40;6.87;;;16.60;99.90;;;;;;4971988;28;20443;-66
2022/04/30 11:41:43;;;;;;;7.77;7.27;;;16.40;99.90;;;;;;4972445;28;20431;-69
2022/04/30 11:44:09;;;;;;;6.97;6.47;;;15.90;99.90;;;;;;4975111;28;20501;-68
2022/04/30 11:46:37;;;;;;;5.67;5.30;;;16.00;99.90;;;;;;4975653;28;20533;-68
2022/04/30 11:49:10;;;;;;;7.20;6.60;;;16.00;99.90;;;;;;4972554;28;20514;-66
2022/04/30 11:51:36;;;;;;;6.47;6.07;;;16.10;99.90;;;;;;4972076;28;20442;-67
2022/04/30 11:54:03;;;;;;;7.77;7.20;;;16.00;99.90;;;;;;4971990;28;20439;-67
2022/04/30 11:56:30;;;;;;;6.40;6.00;;;15.60;99.90;;;;;;4971813;28;20489;-67
2022/04/30 11:58:56;;;;;;;7.57;7.00;;;15.60;99.90;;;;;;4968201;28;20435;-68
2022/04/30 12:01:26;;;;;;;7.53;6.93;;;16.90;99.90;;;;;;4953959;28;20518;-67
2022/04/30 12:04:00;;;;;;;6.10;5.60;;;17.80;99.90;;;;;;4972074;28;20214;-67
2022/04/30 12:06:26;;;;;;;7.53;6.97;;;17.70;99.90;;;;;;4971333;28;20431;-67
2022/04/30 12:08:52;;;;;;;6.67;6.17;;;17.40;99.90;;;;;;4971130;28;20502;-67
2022/04/30 12:11:18;;;;;;;7.10;6.60;;;16.90;99.90;;;;;;4972187;28;20431;-67
2022/04/30 12:13:43;;;;;;;7.00;6.57;;;16.70;99.90;;;;;;4970462;28;20185;-68
2022/04/30 12:16:09;;;;;;;7.23;6.63;;;16.40;99.90;;;;;;4972474;28;20180;-68
2022/04/30 12:27:03;;;;;;;4.70;4.40;;;15.70;99.90;;;;;;4976202;28;20554;-68
2022/04/30 12:29:30;;;;;;;4.87;4.50;;;15.60;99.90;;;;;;4970358;28;20439;-68
2022/04/30 12:31:56;;;;;;;5.40;5.00;;;15.50;99.90;;;;;;4970705;28;20442;-69
2022/04/30 12:34:27;;;;;;;5.57;5.13;;;15.40;99.90;;;;;;4972601;28;20431;-68
2022/04/30 12:36:59;;;;;;;4.80;4.40;;;15.80;99.90;;;;;;4971524;28;21056;-68
2022/04/30 12:39:26;;;;;;;4.90;4.50;;;17.70;99.90;;;;;;4971023;28;20490;-68
2022/04/30 12:41:53;;;;;;;4.20;3.90;;;19.50;99.90;;;;;;4952914;28;20459;-70
2022/04/30 12:44:19;;;;;;;4.53;4.17;;;19.10;99.90;;;;;;4971060;28;20451;-70
2022/04/30 12:46:46;;;;;;;5.00;4.70;;;17.90;99.90;;;;;;4970903;28;20811;-68
2022/04/30 12:49:12;;;;;;;4.87;4.57;;;16.90;99.90;;;;;;4968275;28;20180;-68
2022/04/30 12:51:39;;;;;;;4.93;4.53;;;16.20;99.90;;;;;;4967196;28;20530;-68
2022/04/30 12:54:10;;;;;;;5.07;4.77;;;16.00;99.90;;;;;;4970181;28;20439;-69
2022/04/30 12:56:36;;;;;;;5.37;4.87;;;16.00;99.90;;;;;;4971736;28;20452;-68
2022/04/30 12:59:01;;;;;;;5.07;4.77;;;16.20;99.90;;;;;;4971507;28;20530;-69
2022/04/30 13:01:28;;;;;;;4.50;4.20;;;16.50;99.90;;;;;;4968823;28;20536;-70
2022/04/30 13:03:54;;;;;;;3.93;3.73;;;17.20;99.90;;;;;;4969080;28;20255;-69
2022/04/30 13:06:20;;;;;;;4.27;3.97;;;18.20;99.90;;;;;;4968393;28;20470;-69
2022/04/30 13:14:14;;;;;;;6.60;6.10;;;18.10;99.90;;;;;;4973763;28;20499;-69
2022/04/30 13:16:40;;;;;;;7.00;6.40;;;17.60;99.90;;;;;;4976051;28;20483;-67
2022/04/30 13:19:05;;;;;;;6.73;6.23;;;17.30;99.90;;;;;;4973870;28;20184;-69
2022/04/30 13:21:31;;;;;;;9.03;8.30;;;16.80;99.90;;;;;;4975641;28;20239;-68
2022/04/30 13:23:56;;;;;;;7.83;7.33;;;16.50;99.90;;;;;;4975489;28;20224;-68